sensor_id;sensor_type;location;lat;lon;timestamp;temperature;humidity
18103;DHT22;9178;51.120;6.192;2023-04-25T00:00:05;4.80;99.90
18103;DHT22;9178;51.120;6.192;2023-04-25T00:02:33;4.80;99.90
18103;DHT22;9178;51.120;6.192;2023-04-25T00:05:00;4.70;99.90
18103;DHT22;9178;51.120;6.192;2023-04-25T00:07:27;4.70;99.90
18103;DHT22;9178;51.120;6.192;2023-04-25T00:09:54;4.70;99.90
18103;DHT22;9178;51.120;6.192;2023-04-25T00:12:22;4.70;99.90
18103;DHT22;9178;51.120;6.192;2023-04-25T00:14:49;4.60;99.90
18103;DHT22;9178;51.120;6.192;2023-04-25T00:17:16;4.60;99.90
18103;DHT22;9178;51.120;6.192;2023-04-25T00:19:44;4.60;99.90
18103;DHT22;9178;51.120;6.192;2023-04-25T00:22:11;4.50;99.90
18103;DHT22;9178;51.120;6.192;2023-04-25T00:24:38;4.50;99.90
18103;DHT22;9178;51.120;6.192;2023-04-25T00:27:05;4.50;99.90
18103;DHT22;9178;51.120;6.192;2023-04-25T00:29:34;4.50;99.90
18103;DHT22;9178;51.120;6.192;2023-04-25T00:32:01;4.40;99.90
18103;DHT22;9178;51.120;6.192;2023-04-25T00:34:28;4.40;99.90
18103;DHT22;9178;51.120;6.192;2023-04-25T00:36:55;4.40;99.90
18103;DHT22;9178;51.120;6.192;2023-04-25T00:39:25;4.40;99.90
18103;DHT22;9178;51.120;6.192;2023-04-25T00:41:53;4.50;99.90
18103;DHT22;9178;51.120;6.192;2023-04-25T00:44:20;4.60;99.90
18103;DHT22;9178;51.120;6.192;2023-04-25T00:46:52;4.60;99.90
18103;DHT22;9178;51.120;6.192;2023-04-25T00:49:20;4.70;99.90
18103;DHT22;9178;51.120;6.192;2023-04-25T00:51:47;4.70;99.90
18103;DHT22;9178;51.120;6.192;2023-04-25T00:54:14;4.60;99.90
18103;DHT22;9178;51.120;6.192;2023-04-25T00:56:42;4.60;99.90
18103;DHT22;9178;51.120;6.192;2023-04-25T00:59:10;4.60;99.90
18103;DHT22;9178;51.120;6.192;2023-04-25T01:01:39;4.60;99.90
18103;DHT22;9178;51.120;6.192;2023-04-25T01:04:07;4.70;99.90
18103;DHT22;9178;51.120;6.192;2023-04-25T01:06:35;4.70;99.90
18103;DHT22;9178;51.120;6.192;2023-04-25T01:09:02;4.60;99.90
18103;DHT22;9178;51.120;6.192;2023-04-25T01:11:30;4.70;99.90
18103;DHT22;9178;51.120;6.192;2023-04-25T01:13:57;4.60;99.90
18103;DHT22;9178;51.120;6.192;2023-04-25T01:16:27;4.60;99.90
18103;DHT22;9178;51.120;6.192;2023-04-25T01:18:54;4.60;99.90
18103;DHT22;9178;51.120;6.192;2023-04-25T01:21:26;4.60;99.90
18103;DHT22;9178;51.120;6.192;2023-04-25T01:23:56;4.60;99.90
18103;DHT22;9178;51.120;6.192;2023-04-25T01:26:23;4.50;99.90
18103;DHT22;9178;51.120;6.192;2023-04-25T01:28:51;4.50;99.90
18103;DHT22;9178;51.120;6.192;2023-04-25T01:31:18;4.50;99.90
18103;DHT22;9178;51.120;6.192;2023-04-25T01:33:47;4.40;99.90
18103;DHT22;9178;51.120;6.192;2023-04-25T01:36:14;4.50;99.90
18103;DHT22;9178;51.120;6.192;2023-04-25T01:38:43;4.40;99.90
18103;DHT22;9178;51.120;6.192;2023-04-25T01:41:13;4.40;99.90
18103;DHT22;9178;51.120;6.192;2023-04-25T01:43:40;4.40;99.90
18103;DHT22;9178;51.120;6.192;2023-04-25T01:46:08;4.40;99.90
18103;DHT22;9178;51.120;6.192;2023-04-25T01:48:35;4.40;99.90
18103;DHT22;9178;51.120;6.192;2023-04-25T01:51:02;4.40;99.90
18103;DHT22;9178;51.120;6.192;2023-04-25T01:53:29;4.40;99.90
18103;DHT22;9178;51.120;6.192;2023-04-25T01:55:58;4.40;99.90
18103;DHT22;9178;51.120;6.192;2023-04-25T01:58:25;4.40;99.90
18103;DHT22;9178;51.120;6.192;2023-04-25T02:00:52;4.40;99.90
18103;DHT22;9178;51.120;6.192;2023-04-25T02:03:18;4.40;99.90
18103;DHT22;9178;51.120;6.192;2023-04-25T02:05:45;4.40;99.90
18103;DHT22;9178;51.120;6.192;2023-04-25T02:08:12;4.40;99.90
18103;DHT22;9178;51.120;6.192;2023-04-25T02:10:39;4.40;99.90
18103;DHT22;9178;51.120;6.192;2023-04-25T02:13:08;4.40;99.90
18103;DHT22;9178;51.120;6.192;2023-04-25T02:15:35;4.50;99.90
18103;DHT22;9178;51.120;6.192;2023-04-25T02:18:02;4.50;99.90
18103;DHT22;9178;51.120;6.192;2023-04-25T02:20:30;4.50;99.90
18103;DHT22;9178;51.120;6.192;2023-04-25T02:22:57;4.50;99.90
18103;DHT22;9178;51.120;6.192;2023-04-25T02:25:24;4.50;99.90
18103;DHT22;9178;51.120;6.192;2023-04-25T02:27:51;4.50;99.90
18103;DHT22;9178;51.120;6.192;2023-04-25T02:30:19;4.60;99.90
18103;DHT22;9178;51.120;6.192;2023-04-25T02:32:46;4.60;99.90
18103;DHT22;9178;51.120;6.192;2023-04-25T02:35:13;4.60;99.90
18103;DHT22;9178;51.120;6.192;2023-04-25T02:37:40;4.60;99.90
18103;DHT22;9178;51.120;6.192;2023-04-25T02:40:11;4.60;99.90
18103;DHT22;9178;51.120;6.192;2023-04-25T02:42:38;4.60;99.90
18103;DHT22;9178;51.120;6.192;2023-04-25T02:45:05;4.70;99.90
18103;DHT22;9178;51.120;6.192;2023-04-25T02:47:34;4.70;99.90
18103;DHT22;9178;51.120;6.192;2023-04-25T02:50:00;4.70;99.90
18103;DHT22;9178;51.120;6.192;2023-04-25T02:52:27;4.70;99.90
18103;DHT22;9178;51.120;6.192;2023-04-25T02:54:54;4.70;99.90
18103;DHT22;9178;51.120;6.192;2023-04-25T02:57:22;4.70;99.90
18103;DHT22;9178;51.120;6.192;2023-04-25T02:59:48;4.70;99.90
18103;DHT22;9178;51.120;6.192;2023-04-25T03:02:15;4.70;99.90
18103;DHT22;9178;51.120;6.192;2023-04-25T03:04:43;4.70;99.90
18103;DHT22;9178;51.120;6.192;2023-04-25T03:07:13;4.70;99.90
18103;DHT22;9178;51.120;6.192;2023-04-25T03:09:40;4.80;99.90
18103;DHT22;9178;51.120;6.192;2023-04-25T03:12:07;4.80;99.90
18103;DHT22;9178;51.120;6.192;2023-04-25T03:14:34;4.80;99.90
18103;DHT22;9178;51.120;6.192;2023-04-25T03:17:03;4.80;99.90
18103;DHT22;9178;51.120;6.192;2023-04-25T03:19:30;4.80;99.90
18103;DHT22;9178;51.120;6.192;2023-04-25T03:22:00;4.80;99.90
18103;DHT22;9178;51.120;6.192;2023-04-25T03:24:27;4.80;99.90
18103;DHT22;9178;51.120;6.192;2023-04-25T03:26:54;4.80;99.90
18103;DHT22;9178;51.120;6.192;2023-04-25T03:29:24;4.80;99.90
18103;DHT22;9178;51.120;6.192;2023-04-25T03:31:52;4.80;99.90
18103;DHT22;9178;51.120;6.192;2023-04-25T03:34:19;4.80;99.90
18103;DHT22;9178;51.120;6.192;2023-04-25T03:36:47;4.80;99.90
18103;DHT22;9178;51.120;6.192;2023-04-25T03:39:15;4.80;99.90
18103;DHT22;9178;51.120;6.192;2023-04-25T03:41:42;4.80;99.90
18103;DHT22;9178;51.120;6.192;2023-04-25T03:44:09;4.80;99.90
18103;DHT22;9178;51.120;6.192;2023-04-25T03:46:36;4.80;99.90
18103;DHT22;9178;51.120;6.192;2023-04-25T03:49:03;4.70;99.90
18103;DHT22;9178;51.120;6.192;2023-04-25T03:51:30;4.80;99.90
18103;DHT22;9178;51.120;6.192;2023-04-25T03:53:57;4.70;99.90
18103;DHT22;9178;51.120;6.192;2023-04-25T03:56:25;4.70;99.90
18103;DHT22;9178;51.120;6.192;2023-04-25T03:58:52;4.70;99.90
18103;DHT22;9178;51.120;6.192;2023-04-25T04:01:19;4.70;99.90
18103;DHT22;9178;51.120;6.192;2023-04-25T04:03:49;4.70;99.90
18103;DHT22;9178;51.120;6.192;2023-04-25T04:06:16;4.70;99.90
18103;DHT22;9178;51.120;6.192;2023-04-25T04:08:44;4.70;99.90
18103;DHT22;9178;51.120;6.192;2023-04-25T04:11:13;4.70;99.90
18103;DHT22;9178;51.120;6.192;2023-04-25T04:13:44;4.70;99.90
18103;DHT22;9178;51.120;6.192;2023-04-25T04:16:11;4.70;99.90
18103;DHT22;9178;51.120;6.192;2023-04-25T04:18:41;4.70;99.90
18103;DHT22;9178;51.120;6.192;2023-04-25T04:21:08;4.70;99.90
18103;DHT22;9178;51.120;6.192;2023-04-25T04:23:35;4.80;99.90
18103;DHT22;9178;51.120;6.192;2023-04-25T04:26:03;4.80;99.90
18103;DHT22;9178;51.120;6.192;2023-04-25T04:28:30;4.80;99.90
18103;DHT22;9178;51.120;6.192;2023-04-25T04:31:03;4.80;99.90
18103;DHT22;9178;51.120;6.192;2023-04-25T04:33:30;4.80;99.90
18103;DHT22;9178;51.120;6.192;2023-04-25T04:36:01;4.80;99.90
18103;DHT22;9178;51.120;6.192;2023-04-25T04:38:28;4.90;99.90
18103;DHT22;9178;51.120;6.192;2023-04-25T04:40:58;4.90;99.90
18103;DHT22;9178;51.120;6.192;2023-04-25T04:43:28;4.90;99.90
18103;DHT22;9178;51.120;6.192;2023-04-25T04:45:55;5.00;99.90
18103;DHT22;9178;51.120;6.192;2023-04-25T04:48:24;5.00;99.90
18103;DHT22;9178;51.120;6.192;2023-04-25T04:50:52;5.00;99.90
18103;DHT22;9178;51.120;6.192;2023-04-25T04:53:21;5.00;99.90
18103;DHT22;9178;51.120;6.192;2023-04-25T04:55:52;5.10;99.90
18103;DHT22;9178;51.120;6.192;2023-04-25T04:58:19;5.10;99.90
18103;DHT22;9178;51.120;6.192;2023-04-25T05:00:47;5.20;99.90
18103;DHT22;9178;51.120;6.192;2023-04-25T05:03:13;5.20;99.90
18103;DHT22;9178;51.120;6.192;2023-04-25T05:05:42;5.10;99.90
18103;DHT22;9178;51.120;6.192;2023-04-25T05:08:09;5.20;99.90
18103;DHT22;9178;51.120;6.192;2023-04-25T05:10:36;5.20;99.90
18103;DHT22;9178;51.120;6.192;2023-04-25T05:13:05;5.30;99.90
18103;DHT22;9178;51.120;6.192;2023-04-25T05:15:32;5.20;99.90
18103;DHT22;9178;51.120;6.192;2023-04-25T05:17:59;5.30;99.90
18103;DHT22;9178;51.120;6.192;2023-04-25T05:20:28;5.30;99.90
18103;DHT22;9178;51.120;6.192;2023-04-25T05:23:06;5.40;99.90
18103;DHT22;9178;51.120;6.192;2023-04-25T05:25:33;5.40;99.90
18103;DHT22;9178;51.120;6.192;2023-04-25T05:28:00;5.50;99.90
18103;DHT22;9178;51.120;6.192;2023-04-25T05:30:29;5.50;99.90
18103;DHT22;9178;51.120;6.192;2023-04-25T05:32:56;5.60;99.90
18103;DHT22;9178;51.120;6.192;2023-04-25T05:35:23;5.60;99.90
18103;DHT22;9178;51.120;6.192;2023-04-25T05:37:59;5.70;99.90
18103;DHT22;9178;51.120;6.192;2023-04-25T05:40:27;5.80;99.90
18103;DHT22;9178;51.120;6.192;2023-04-25T05:42:54;5.90;99.90
18103;DHT22;9178;51.120;6.192;2023-04-25T05:45:21;5.90;99.90
18103;DHT22;9178;51.120;6.192;2023-04-25T05:47:48;6.00;99.90
18103;DHT22;9178;51.120;6.192;2023-04-25T05:50:16;6.00;99.90
18103;DHT22;9178;51.120;6.192;2023-04-25T05:52:43;6.10;99.90
18103;DHT22;9178;51.120;6.192;2023-04-25T05:55:10;6.20;99.90
18103;DHT22;9178;51.120;6.192;2023-04-25T05:57:38;6.20;99.90
18103;DHT22;9178;51.120;6.192;2023-04-25T06:00:15;6.30;99.90
18103;DHT22;9178;51.120;6.192;2023-04-25T06:02:42;6.30;99.90
18103;DHT22;9178;51.120;6.192;2023-04-25T06:05:09;6.40;99.90
18103;DHT22;9178;51.120;6.192;2023-04-25T06:07:37;6.50;99.90
18103;DHT22;9178;51.120;6.192;2023-04-25T06:10:05;6.50;99.90
18103;DHT22;9178;51.120;6.192;2023-04-25T06:12:32;6.60;99.90
18103;DHT22;9178;51.120;6.192;2023-04-25T06:15:01;6.70;99.90
18103;DHT22;9178;51.120;6.192;2023-04-25T06:17:28;6.70;99.90
18103;DHT22;9178;51.120;6.192;2023-04-25T06:19:55;6.70;99.90
18103;DHT22;9178;51.120;6.192;2023-04-25T06:22:29;6.70;99.90
18103;DHT22;9178;51.120;6.192;2023-04-25T06:24:56;6.90;99.90
18103;DHT22;9178;51.120;6.192;2023-04-25T06:27:28;7.00;99.90
18103;DHT22;9178;51.120;6.192;2023-04-25T06:29:57;7.00;99.90
18103;DHT22;9178;51.120;6.192;2023-04-25T06:32:25;7.10;99.90
18103;DHT22;9178;51.120;6.192;2023-04-25T06:34:53;7.20;99.90
18103;DHT22;9178;51.120;6.192;2023-04-25T06:37:20;7.30;99.90
18103;DHT22;9178;51.120;6.192;2023-04-25T06:39:46;7.20;99.90
18103;DHT22;9178;51.120;6.192;2023-04-25T06:42:13;7.20;99.90
18103;DHT22;9178;51.120;6.192;2023-04-25T06:44:40;7.20;99.90
18103;DHT22;9178;51.120;6.192;2023-04-25T06:47:07;7.30;99.90
18103;DHT22;9178;51.120;6.192;2023-04-25T06:49:36;7.30;99.90
18103;DHT22;9178;51.120;6.192;2023-04-25T06:52:03;7.40;99.90
18103;DHT22;9178;51.120;6.192;2023-04-25T06:54:32;7.40;99.90
18103;DHT22;9178;51.120;6.192;2023-04-25T06:56:59;7.50;99.90
18103;DHT22;9178;51.120;6.192;2023-04-25T06:59:27;7.50;99.90
18103;DHT22;9178;51.120;6.192;2023-04-25T07:01:54;7.60;99.90
18103;DHT22;9178;51.120;6.192;2023-04-25T07:04:24;7.70;99.90
18103;DHT22;9178;51.120;6.192;2023-04-25T07:06:52;7.70;99.90
18103;DHT22;9178;51.120;6.192;2023-04-25T07:09:20;7.90;99.90
18103;DHT22;9178;51.120;6.192;2023-04-25T07:11:47;8.00;99.90
18103;DHT22;9178;51.120;6.192;2023-04-25T07:14:14;8.10;99.90
18103;DHT22;9178;51.120;6.192;2023-04-25T07:16:41;8.30;99.90
18103;DHT22;9178;51.120;6.192;2023-04-25T07:19:08;8.40;99.90
18103;DHT22;9178;51.120;6.192;2023-04-25T07:21:35;8.50;99.90
18103;DHT22;9178;51.120;6.192;2023-04-25T07:24:06;8.60;99.90
18103;DHT22;9178;51.120;6.192;2023-04-25T07:26:41;8.80;99.90
18103;DHT22;9178;51.120;6.192;2023-04-25T07:29:08;9.00;99.90
18103;DHT22;9178;51.120;6.192;2023-04-25T07:31:35;9.20;99.90
18103;DHT22;9178;51.120;6.192;2023-04-25T07:34:02;9.20;99.90
18103;DHT22;9178;51.120;6.192;2023-04-25T07:36:29;9.30;99.90
18103;DHT22;9178;51.120;6.192;2023-04-25T07:38:56;9.50;99.90
18103;DHT22;9178;51.120;6.192;2023-04-25T07:41:25;9.60;99.90
18103;DHT22;9178;51.120;6.192;2023-04-25T07:43:52;9.60;99.90
18103;DHT22;9178;51.120;6.192;2023-04-25T07:46:18;9.60;99.90
18103;DHT22;9178;51.120;6.192;2023-04-25T07:48:46;9.70;99.90
18103;DHT22;9178;51.120;6.192;2023-04-25T07:51:13;9.70;99.90
18103;DHT22;9178;51.120;6.192;2023-04-25T07:53:40;9.80;99.90
18103;DHT22;9178;51.120;6.192;2023-04-25T07:56:07;9.90;99.90
18103;DHT22;9178;51.120;6.192;2023-04-25T07:58:38;9.90;99.90
18103;DHT22;9178;51.120;6.192;2023-04-25T08:01:05;10.00;99.90
18103;DHT22;9178;51.120;6.192;2023-04-25T08:03:34;10.10;99.90
18103;DHT22;9178;51.120;6.192;2023-04-25T08:06:01;10.20;99.90
18103;DHT22;9178;51.120;6.192;2023-04-25T08:08:31;10.50;99.90
18103;DHT22;9178;51.120;6.192;2023-04-25T08:10:58;10.60;99.90
18103;DHT22;9178;51.120;6.192;2023-04-25T08:13:25;10.70;99.90
18103;DHT22;9178;51.120;6.192;2023-04-25T08:15:53;10.70;99.90
18103;DHT22;9178;51.120;6.192;2023-04-25T08:18:20;10.70;99.90
18103;DHT22;9178;51.120;6.192;2023-04-25T08:20:55;10.70;99.90
18103;DHT22;9178;51.120;6.192;2023-04-25T08:23:22;11.00;99.90
18103;DHT22;9178;51.120;6.192;2023-04-25T08:25:49;10.80;99.90
18103;DHT22;9178;51.120;6.192;2023-04-25T08:28:16;10.70;99.90
18103;DHT22;9178;51.120;6.192;2023-04-25T08:30:43;10.70;99.90
18103;DHT22;9178;51.120;6.192;2023-04-25T08:33:11;10.70;99.90
18103;DHT22;9178;51.120;6.192;2023-04-25T08:35:38;10.70;99.90
18103;DHT22;9178;51.120;6.192;2023-04-25T08:38:07;10.90;99.90
18103;DHT22;9178;51.120;6.192;2023-04-25T08:40:38;10.90;99.90
18103;DHT22;9178;51.120;6.192;2023-04-25T08:43:06;10.90;99.90
18103;DHT22;9178;51.120;6.192;2023-04-25T08:45:39;10.80;99.90
18103;DHT22;9178;51.120;6.192;2023-04-25T08:48:10;10.80;99.90
18103;DHT22;9178;51.120;6.192;2023-04-25T08:50:40;10.80;99.90
18103;DHT22;9178;51.120;6.192;2023-04-25T08:53:09;10.90;99.90
18103;DHT22;9178;51.120;6.192;2023-04-25T08:55:42;10.90;99.90
18103;DHT22;9178;51.120;6.192;2023-04-25T08:58:10;11.10;99.90
18103;DHT22;9178;51.120;6.192;2023-04-25T09:00:38;11.40;99.90
18103;DHT22;9178;51.120;6.192;2023-04-25T09:03:08;11.90;99.90
18103;DHT22;9178;51.120;6.192;2023-04-25T09:05:35;11.50;99.90
18103;DHT22;9178;51.120;6.192;2023-04-25T09:08:04;11.30;99.90
18103;DHT22;9178;51.120;6.192;2023-04-25T09:10:31;11.30;99.90
18103;DHT22;9178;51.120;6.192;2023-04-25T09:13:02;11.30;99.90
18103;DHT22;9178;51.120;6.192;2023-04-25T09:15:31;11.10;99.90
18103;DHT22;9178;51.120;6.192;2023-04-25T09:17:58;11.20;99.90
18103;DHT22;9178;51.120;6.192;2023-04-25T09:20:26;11.10;99.90
18103;DHT22;9178;51.120;6.192;2023-04-25T09:23:01;11.10;99.90
18103;DHT22;9178;51.120;6.192;2023-04-25T09:25:36;10.90;99.90
18103;DHT22;9178;51.120;6.192;2023-04-25T09:28:05;11.00;99.90
18103;DHT22;9178;51.120;6.192;2023-04-25T09:30:33;11.30;99.90
18103;DHT22;9178;51.120;6.192;2023-04-25T09:33:08;11.80;99.90
18103;DHT22;9178;51.120;6.192;2023-04-25T09:35:36;11.90;99.90
18103;DHT22;9178;51.120;6.192;2023-04-25T09:38:08;11.90;99.90
18103;DHT22;9178;51.120;6.192;2023-04-25T09:40:44;11.80;99.90
18103;DHT22;9178;51.120;6.192;2023-04-25T09:43:19;11.60;99.90
18103;DHT22;9178;51.120;6.192;2023-04-25T09:45:46;11.60;99.90
18103;DHT22;9178;51.120;6.192;2023-04-25T09:48:17;11.70;99.90
18103;DHT22;9178;51.120;6.192;2023-04-25T09:50:45;11.80;99.90
18103;DHT22;9178;51.120;6.192;2023-04-25T09:53:27;12.10;99.90
18103;DHT22;9178;51.120;6.192;2023-04-25T09:55:55;12.20;99.90
18103;DHT22;9178;51.120;6.192;2023-04-25T09:58:24;12.20;99.90
18103;DHT22;9178;51.120;6.192;2023-04-25T10:00:51;12.30;99.90
18103;DHT22;9178;51.120;6.192;2023-04-25T10:03:23;12.30;99.90
18103;DHT22;9178;51.120;6.192;2023-04-25T10:06:01;12.30;99.90
18103;DHT22;9178;51.120;6.192;2023-04-25T10:08:32;12.40;99.90
18103;DHT22;9178;51.120;6.192;2023-04-25T10:11:04;12.40;99.90
18103;DHT22;9178;51.120;6.192;2023-04-25T10:13:31;12.40;99.90
18103;DHT22;9178;51.120;6.192;2023-04-25T10:16:00;12.40;99.90
18103;DHT22;9178;51.120;6.192;2023-04-25T10:18:28;12.50;99.90
18103;DHT22;9178;51.120;6.192;2023-04-25T10:21:03;12.60;99.90
18103;DHT22;9178;51.120;6.192;2023-04-25T10:23:34;12.60;99.90
18103;DHT22;9178;51.120;6.192;2023-04-25T10:26:03;12.70;99.90
18103;DHT22;9178;51.120;6.192;2023-04-25T10:29:02;12.80;99.90
18103;DHT22;9178;51.120;6.192;2023-04-25T10:31:30;12.90;99.90
18103;DHT22;9178;51.120;6.192;2023-04-25T10:33:57;13.00;99.90
18103;DHT22;9178;51.120;6.192;2023-04-25T10:36:26;13.20;99.90
18103;DHT22;9178;51.120;6.192;2023-04-25T10:38:54;13.40;99.90
18103;DHT22;9178;51.120;6.192;2023-04-25T10:41:24;13.30;99.90
18103;DHT22;9178;51.120;6.192;2023-04-25T10:43:59;13.10;99.90
18103;DHT22;9178;51.120;6.192;2023-04-25T10:46:28;13.10;99.90
18103;DHT22;9178;51.120;6.192;2023-04-25T10:48:57;12.90;99.90
18103;DHT22;9178;51.120;6.192;2023-04-25T10:51:26;12.90;99.90
18103;DHT22;9178;51.120;6.192;2023-04-25T10:54:05;12.70;99.90
18103;DHT22;9178;51.120;6.192;2023-04-25T10:56:36;12.70;99.90
18103;DHT22;9178;51.120;6.192;2023-04-25T10:59:06;12.80;99.90
18103;DHT22;9178;51.120;6.192;2023-04-25T11:01:41;12.80;99.90
18103;DHT22;9178;51.120;6.192;2023-04-25T11:04:19;12.90;99.90
18103;DHT22;9178;51.120;6.192;2023-04-25T11:06:55;13.00;99.90
18103;DHT22;9178;51.120;6.192;2023-04-25T11:09:27;13.20;99.90
18103;DHT22;9178;51.120;6.192;2023-04-25T11:12:02;14.20;99.90
18103;DHT22;9178;51.120;6.192;2023-04-25T11:14:31;15.30;99.90
18103;DHT22;9178;51.120;6.192;2023-04-25T11:16:59;16.00;99.90
18103;DHT22;9178;51.120;6.192;2023-04-25T11:19:27;16.80;99.90
18103;DHT22;9178;51.120;6.192;2023-04-25T11:21:55;17.10;99.90
18103;DHT22;9178;51.120;6.192;2023-04-25T11:24:26;16.70;96.90
18103;DHT22;9178;51.120;6.192;2023-04-25T11:26:53;16.50;95.30
18103;DHT22;9178;51.120;6.192;2023-04-25T11:29:23;16.40;96.40
18103;DHT22;9178;51.120;6.192;2023-04-25T11:31:50;16.10;94.50
18103;DHT22;9178;51.120;6.192;2023-04-25T11:34:17;15.50;94.00
18103;DHT22;9178;51.120;6.192;2023-04-25T11:36:45;15.00;96.40
18103;DHT22;9178;51.120;6.192;2023-04-25T11:39:12;14.50;98.70
18103;DHT22;9178;51.120;6.192;2023-04-25T11:41:41;14.30;98.20
18103;DHT22;9178;51.120;6.192;2023-04-25T11:44:08;13.80;99.90
18103;DHT22;9178;51.120;6.192;2023-04-25T11:46:39;13.40;99.90
18103;DHT22;9178;51.120;6.192;2023-04-25T11:49:09;12.90;99.90
18103;DHT22;9178;51.120;6.192;2023-04-25T11:51:41;12.70;99.90
18103;DHT22;9178;51.120;6.192;2023-04-25T11:54:09;12.60;99.90
18103;DHT22;9178;51.120;6.192;2023-04-25T11:56:40;12.50;99.90
18103;DHT22;9178;51.120;6.192;2023-04-25T11:59:13;12.70;99.90
18103;DHT22;9178;51.120;6.192;2023-04-25T12:01:48;13.70;99.90
18103;DHT22;9178;51.120;6.192;2023-04-25T12:04:18;14.70;99.90
18103;DHT22;9178;51.120;6.192;2023-04-25T12:06:46;15.70;99.90
18103;DHT22;9178;51.120;6.192;2023-04-25T12:09:16;16.20;97.80
18103;DHT22;9178;51.120;6.192;2023-04-25T12:11:44;15.80;97.50
18103;DHT22;9178;51.120;6.192;2023-04-25T12:14:11;15.00;95.40
18103;DHT22;9178;51.120;6.192;2023-04-25T12:16:44;14.50;98.10
18103;DHT22;9178;51.120;6.192;2023-04-25T12:19:14;14.40;99.90
18103;DHT22;9178;51.120;6.192;2023-04-25T12:21:41;14.90;97.40
18103;DHT22;9178;51.120;6.192;2023-04-25T12:24:10;15.00;99.80
18103;DHT22;9178;51.120;6.192;2023-04-25T12:26:50;15.50;98.00
18103;DHT22;9178;51.120;6.192;2023-04-25T12:29:18;15.30;91.80
18103;DHT22;9178;51.120;6.192;2023-04-25T12:31:47;15.50;97.10
18103;DHT22;9178;51.120;6.192;2023-04-25T12:34:24;16.10;92.50
18103;DHT22;9178;51.120;6.192;2023-04-25T12:36:52;16.30;92.30
18103;DHT22;9178;51.120;6.192;2023-04-25T12:39:20;15.80;93.80
18103;DHT22;9178;51.120;6.192;2023-04-25T12:41:53;16.00;96.00
18103;DHT22;9178;51.120;6.192;2023-04-25T12:44:20;16.00;93.00
18103;DHT22;9178;51.120;6.192;2023-04-25T12:46:49;15.70;94.50
18103;DHT22;9178;51.120;6.192;2023-04-25T12:49:16;16.10;92.50
18103;DHT22;9178;51.120;6.192;2023-04-25T12:51:43;16.30;92.50
18103;DHT22;9178;51.120;6.192;2023-04-25T12:54:17;16.50;88.00
18103;DHT22;9178;51.120;6.192;2023-04-25T12:56:45;16.10;90.00
18103;DHT22;9178;51.120;6.192;2023-04-25T12:59:13;15.40;90.90
18103;DHT22;9178;51.120;6.192;2023-04-25T13:01:50;15.00;90.50
18103;DHT22;9178;51.120;6.192;2023-04-25T13:04:17;14.90;94.10
18103;DHT22;9178;51.120;6.192;2023-04-25T13:06:46;14.80;95.20
18103;DHT22;9178;51.120;6.192;2023-04-25T13:09:13;14.60;95.20
18103;DHT22;9178;51.120;6.192;2023-04-25T13:11:41;14.40;96.90
18103;DHT22;9178;51.120;6.192;2023-04-25T13:14:08;14.20;95.90
18103;DHT22;9178;51.120;6.192;2023-04-25T13:16:35;13.90;95.00
18103;DHT22;9178;51.120;6.192;2023-04-25T13:19:03;13.60;96.40
18103;DHT22;9178;51.120;6.192;2023-04-25T13:21:32;13.50;96.90
18103;DHT22;9178;51.120;6.192;2023-04-25T13:23:59;13.90;98.30
18103;DHT22;9178;51.120;6.192;2023-04-25T13:26:26;14.00;97.20
18103;DHT22;9178;51.120;6.192;2023-04-25T13:28:53;13.90;95.30
18103;DHT22;9178;51.120;6.192;2023-04-25T13:31:20;14.00;96.80
18103;DHT22;9178;51.120;6.192;2023-04-25T13:33:47;14.00;97.00
18103;DHT22;9178;51.120;6.192;2023-04-25T13:36:15;13.90;95.80
18103;DHT22;9178;51.120;6.192;2023-04-25T13:38:42;14.10;98.00
18103;DHT22;9178;51.120;6.192;2023-04-25T13:41:12;14.60;98.30
18103;DHT22;9178;51.120;6.192;2023-04-25T13:43:44;15.20;98.70
18103;DHT22;9178;51.120;6.192;2023-04-25T13:46:12;15.90;94.50
18103;DHT22;9178;51.120;6.192;2023-04-25T13:48:41;16.10;93.70
18103;DHT22;9178;51.120;6.192;2023-04-25T13:51:18;16.20;96.50
18103;DHT22;9178;51.120;6.192;2023-04-25T13:53:46;15.90;90.90
18103;DHT22;9178;51.120;6.192;2023-04-25T13:56:13;15.20;92.50
18103;DHT22;9178;51.120;6.192;2023-04-25T13:58:40;14.90;93.80
18103;DHT22;9178;51.120;6.192;2023-04-25T14:01:07;15.00;92.60
18103;DHT22;9178;51.120;6.192;2023-04-25T14:03:34;14.80;96.50
18103;DHT22;9178;51.120;6.192;2023-04-25T14:06:01;15.50;93.10
18103;DHT22;9178;51.120;6.192;2023-04-25T14:08:29;16.00;92.40
18103;DHT22;9178;51.120;6.192;2023-04-25T14:10:56;16.60;92.70
18103;DHT22;9178;51.120;6.192;2023-04-25T14:13:23;17.40;91.60
18103;DHT22;9178;51.120;6.192;2023-04-25T14:15:51;17.60;89.80
18103;DHT22;9178;51.120;6.192;2023-04-25T14:18:18;16.90;85.10
18103;DHT22;9178;51.120;6.192;2023-04-25T14:20:46;17.30;91.10
18103;DHT22;9178;51.120;6.192;2023-04-25T14:23:13;18.00;90.10
18103;DHT22;9178;51.120;6.192;2023-04-25T14:25:41;18.40;91.00
18103;DHT22;9178;51.120;6.192;2023-04-25T14:28:09;18.80;90.60
18103;DHT22;9178;51.120;6.192;2023-04-25T14:30:36;18.00;87.90
18103;DHT22;9178;51.120;6.192;2023-04-25T14:33:03;17.60;90.00
18103;DHT22;9178;51.120;6.192;2023-04-25T14:35:31;17.00;85.20
18103;DHT22;9178;51.120;6.192;2023-04-25T14:37:57;16.00;86.90
18103;DHT22;9178;51.120;6.192;2023-04-25T14:40:25;15.50;85.40
18103;DHT22;9178;51.120;6.192;2023-04-25T14:42:53;14.80;89.70
18103;DHT22;9178;51.120;6.192;2023-04-25T14:45:21;14.50;87.40
18103;DHT22;9178;51.120;6.192;2023-04-25T14:47:47;14.40;87.80
18103;DHT22;9178;51.120;6.192;2023-04-25T14:50:15;14.20;88.90
18103;DHT22;9178;51.120;6.192;2023-04-25T14:52:42;14.00;88.60
18103;DHT22;9178;51.120;6.192;2023-04-25T14:55:10;14.00;92.50
18103;DHT22;9178;51.120;6.192;2023-04-25T14:57:37;14.40;92.10
18103;DHT22;9178;51.120;6.192;2023-04-25T15:00:08;14.90;91.60
18103;DHT22;9178;51.120;6.192;2023-04-25T15:02:35;15.80;91.70
18103;DHT22;9178;51.120;6.192;2023-04-25T15:05:02;16.20;80.90
18103;DHT22;9178;51.120;6.192;2023-04-25T15:07:32;16.00;86.00
18103;DHT22;9178;51.120;6.192;2023-04-25T15:10:03;15.80;87.50
18103;DHT22;9178;51.120;6.192;2023-04-25T15:12:31;15.50;83.40
18103;DHT22;9178;51.120;6.192;2023-04-25T15:14:58;15.00;84.00
18103;DHT22;9178;51.120;6.192;2023-04-25T15:17:26;14.50;85.30
18103;DHT22;9178;51.120;6.192;2023-04-25T15:19:56;14.50;91.30
18103;DHT22;9178;51.120;6.192;2023-04-25T15:22:23;14.90;90.40
18103;DHT22;9178;51.120;6.192;2023-04-25T15:24:50;15.00;89.30
18103;DHT22;9178;51.120;6.192;2023-04-25T15:27:17;14.60;90.80
18103;DHT22;9178;51.120;6.192;2023-04-25T15:29:43;14.40;89.50
18103;DHT22;9178;51.120;6.192;2023-04-25T15:32:11;14.30;90.30
18103;DHT22;9178;51.120;6.192;2023-04-25T15:34:39;14.40;90.70
18103;DHT22;9178;51.120;6.192;2023-04-25T15:37:06;14.70;90.50
18103;DHT22;9178;51.120;6.192;2023-04-25T15:39:33;15.00;86.30
18103;DHT22;9178;51.120;6.192;2023-04-25T15:42:03;14.90;89.10
18103;DHT22;9178;51.120;6.192;2023-04-25T15:44:30;15.20;92.80
18103;DHT22;9178;51.120;6.192;2023-04-25T15:46:57;15.10;84.00
18103;DHT22;9178;51.120;6.192;2023-04-25T15:49:24;14.90;85.80
18103;DHT22;9178;51.120;6.192;2023-04-25T15:51:52;14.90;90.00
18103;DHT22;9178;51.120;6.192;2023-04-25T15:54:20;14.90;88.20
18103;DHT22;9178;51.120;6.192;2023-04-25T15:56:50;14.90;86.50
18103;DHT22;9178;51.120;6.192;2023-04-25T15:59:17;14.60;84.10
18103;DHT22;9178;51.120;6.192;2023-04-25T16:01:43;14.50;84.70